Gheorgheni, Romania
Current Conditions -  °F | °C
As of 3:30 PM on Thursday 30 Oct 2014 (Local Time) from LRTM Reporting Station
Clear Clear  
Wind Chill: 52°   Ceiling: Unl
Heat Index: 52°   Visibility: 6mi
Dew Point: 36°   Wind: 5mph
Humidity: 54%   Direction: 260°W
Pressure: 30.21"   Gusts: NA
Location:  46.72°N, 25.59°E
Report Text: LRTM 301230Z 26004KT 210V320 CAVOK 11/02 Q1023
Loading
Personal Weather Stations






























Interactive Weather Map
Tropical Storm Tracking
New forecast layout! Learn more

10-Day Weather Forecast

Advertisements
Track Severe Weather on mobile